Time;durP1;ratioP1;P1;durP2;ratioP2;P2;SDS_P1;SDS_P2;PMS_P1;PMS_P2;Temp;Humidity;BMP_temperature;BMP_pressure;BME280_temperature;BME280_humidity;BME280_pressure;Samples;Min_cycle;Max_cycle;Signal;HPM_P1;HPM_P2
2021/11/10 00:01:44;;;;;;;14.57;8.57;;;22.70;99.90;;;;;;5077552;28;20115;-74
2021/11/10 00:04:11;;;;;;;11.07;7.10;;;22.70;99.90;;;;;;5081651;28;20024;-75
2021/11/10 00:06:39;;;;;;;18.25;8.80;;;22.90;99.90;;;;;;5078897;28;20364;-75
2021/11/10 00:09:06;;;;;;;14.23;8.43;;;22.90;99.90;;;;;;5070665;28;20056;-75
2021/11/10 00:11:34;;;;;;;17.40;9.48;;;22.90;99.90;;;;;;5082400;28;20382;-74
2021/11/10 00:14:02;;;;;;;15.32;9.63;;;23.00;99.90;;;;;;5080659;28;20060;-73
2021/11/10 00:16:30;;;;;;;19.05;9.20;;;23.10;99.90;;;;;;5077615;28;20499;-74
2021/11/10 00:18:57;;;;;;;14.27;8.27;;;23.10;99.90;;;;;;5082479;28;20623;-72
2021/11/10 00:21:26;;;;;;;22.13;9.57;;;23.20;99.90;;;;;;5079488;28;20025;-75
2021/11/10 00:23:55;;;;;;;14.82;9.15;;;23.30;99.90;;;;;;5083311;28;20032;-74
2021/11/10 00:26:23;;;;;;;15.15;8.50;;;23.30;99.90;;;;;;5080427;28;20020;-75
2021/11/10 00:28:51;;;;;;;15.70;9.23;;;23.20;99.90;;;;;;5073581;28;20021;-75
2021/11/10 00:31:20;;;;;;;14.05;8.65;;;23.10;99.90;;;;;;5078788;28;20071;-75
2021/11/10 00:33:48;;;;;;;15.93;9.50;;;23.10;99.90;;;;;;5078811;28;20065;-74
2021/11/10 00:36:16;;;;;;;14.38;8.45;;;23.20;99.90;;;;;;5078989;28;20020;-73
2021/11/10 00:38:44;;;;;;;19.10;10.45;;;23.30;99.90;;;;;;5077502;28;20025;-75
2021/11/10 00:41:12;;;;;;;13.90;9.40;;;23.20;99.90;;;;;;5077708;28;20044;-74
2021/11/10 00:43:39;;;;;;;16.33;9.02;;;23.10;99.90;;;;;;5082740;28;20031;-75
2021/11/10 00:46:07;;;;;;;14.35;9.65;;;22.90;99.90;;;;;;5078802;28;20058;-74
2021/11/10 00:48:34;;;;;;;19.83;10.07;;;22.80;99.90;;;;;;5081253;28;20055;-74
2021/11/10 00:51:02;;;;;;;19.10;11.35;;;22.70;99.90;;;;;;5079159;28;20034;-74
2021/11/10 00:53:30;;;;;;;13.60;9.13;;;22.60;99.90;;;;;;5080646;28;20051;-74
2021/11/10 00:55:57;;;;;;;16.63;9.90;;;22.50;99.90;;;;;;5081890;28;20068;-75
2021/11/10 00:58:24;;;;;;;19.02;10.27;;;22.50;99.90;;;;;;5078389;28;20020;-75
2021/11/10 01:00:52;;;;;;;13.43;9.43;;;22.40;99.90;;;;;;5080439;28;20034;-74
2021/11/10 01:03:20;;;;;;;15.27;9.27;;;22.20;99.90;;;;;;5081758;28;20078;-74
2021/11/10 01:05:47;;;;;;;14.40;9.05;;;22.20;99.90;;;;;;5082755;28;20382;-73
2021/11/10 01:08:15;;;;;;;13.32;7.60;;;22.10;99.90;;;;;;5063485;28;20024;-74
2021/11/10 01:10:42;;;;;;;15.07;9.50;;;22.10;99.90;;;;;;5081352;28;20376;-74
2021/11/10 01:13:09;;;;;;;19.48;10.00;;;22.00;99.90;;;;;;5082658;28;20020;-74
2021/11/10 01:15:39;;;;;;;19.45;10.50;;;22.00;99.90;;;;;;5082774;28;20109;-74
2021/11/10 01:18:06;;;;;;;21.20;10.27;;;21.90;99.90;;;;;;5081796;28;20068;-74
2021/11/10 01:20:34;;;;;;;18.67;11.25;;;21.80;99.90;;;;;;5083419;28;20035;-73
2021/11/10 01:23:01;;;;;;;15.85;9.70;;;21.70;99.90;;;;;;5087631;28;20032;-74
2021/11/10 01:25:29;;;;;;;17.00;9.88;;;21.70;99.90;;;;;;5080834;28;20032;-74
2021/11/10 01:27:56;;;;;;;18.02;10.43;;;21.60;99.90;;;;;;5079664;28;20023;-73
2021/11/10 01:30:24;;;;;;;16.83;10.52;;;21.60;99.90;;;;;;5086549;28;20005;-74
2021/11/10 01:32:51;;;;;;;24.45;11.77;;;21.60;99.90;;;;;;5083710;28;20032;-74
2021/11/10 01:35:20;;;;;;;19.95;11.05;;;21.50;99.90;;;;;;5082362;28;20027;-75
2021/11/10 01:37:47;;;;;;;20.50;9.85;;;21.40;99.90;;;;;;5077231;28;20505;-73
2021/11/10 01:40:18;;;;;;;19.23;10.75;;;21.30;99.90;;;;;;5083195;28;20040;-73
2021/11/10 01:42:47;;;;;;;21.52;10.02;;;21.30;99.90;;;;;;5081110;28;20103;-75
2021/11/10 01:45:16;;;;;;;23.23;11.70;;;21.30;99.90;;;;;;5084504;28;20379;-73
2021/11/10 01:47:45;;;;;;;26.23;12.60;;;21.30;99.90;;;;;;5080367;28;20114;-74
2021/11/10 01:50:15;;;;;;;19.80;12.20;;;21.20;99.90;;;;;;5086663;28;20461;-74
2021/11/10 01:52:43;;;;;;;20.38;12.18;;;21.20;99.90;;;;;;5083839;28;20521;-74
2021/11/10 01:55:10;;;;;;;21.60;11.55;;;21.20;99.90;;;;;;5058117;28;20502;-73
2021/11/10 01:57:43;;;;;;;21.63;12.73;;;21.20;99.90;;;;;;5077126;28;20241;-74
2021/11/10 02:00:27;;;;;;;30.05;12.30;;;21.10;99.90;;;;;;5083177;28;20107;-74
2021/11/10 02:02:56;;;;;;;21.58;11.32;;;21.10;99.90;;;;;;5068908;28;20415;-73
2021/11/10 02:05:24;;;;;;;21.85;11.95;;;21.10;99.90;;;;;;5059816;28;20040;-73
2021/11/10 02:07:52;;;;;;;23.35;12.95;;;21.10;99.90;;;;;;5080398;28;20375;-73
2021/11/10 02:10:24;;;;;;;18.95;11.55;;;21.10;99.90;;;;;;5083146;28;20027;-73
2021/11/10 02:12:52;;;;;;;26.77;13.07;;;21.10;99.90;;;;;;5079256;28;20024;-74
2021/11/10 02:15:21;;;;;;;21.10;12.30;;;21.20;99.90;;;;;;5081929;28;20039;-73
2021/11/10 02:18:01;;;;;;;22.33;12.93;;;21.10;99.90;;;;;;5079805;28;20473;-74
2021/11/10 02:20:34;;;;;;;17.25;11.10;;;21.10;99.90;;;;;;5077974;28;20031;-74
2021/11/10 02:23:02;;;;;;;26.67;12.43;;;21.10;99.90;;;;;;5080592;28;20023;-73
2021/11/10 02:25:30;;;;;;;24.30;13.13;;;21.20;99.90;;;;;;5080081;28;20039;-74
2021/11/10 02:27:58;;;;;;;26.02;14.27;;;21.20;99.90;;;;;;5085944;28;20047;-74
2021/11/10 02:30:26;;;;;;;32.25;14.30;;;21.00;99.90;;;;;;5079168;28;20376;-73
2021/11/10 02:32:59;;;;;;;22.52;11.55;;;21.00;99.90;;;;;;5081212;28;20052;-73
2021/11/10 02:35:28;;;;;;;25.90;12.63;;;21.00;99.90;;;;;;5080445;28;20495;-74
2021/11/10 02:37:59;;;;;;;23.95;13.30;;;21.10;99.90;;;;;;5078305;28;20518;-73
2021/11/10 02:40:27;;;;;;;30.50;14.75;;;21.30;99.90;;;;;;5082191;28;20035;-74
2021/11/10 02:42:55;;;;;;;29.27;15.43;;;21.40;99.90;;;;;;5082927;28;20020;-74
2021/11/10 02:45:24;;;;;;;23.63;12.73;;;21.50;99.90;;;;;;5083831;28;20435;-74
2021/11/10 02:47:51;;;;;;;25.55;14.30;;;21.60;99.90;;;;;;5063091;28;21892;-75
2021/11/10 02:50:19;;;;;;;29.85;13.23;;;21.60;99.90;;;;;;5079426;28;20048;-74
2021/11/10 02:52:47;;;;;;;21.73;12.73;;;21.70;99.90;;;;;;5078738;28;20478;-73
2021/11/10 02:55:14;;;;;;;21.92;12.93;;;21.80;99.90;;;;;;5081297;28;20035;-73
2021/11/10 02:57:41;;;;;;;20.00;11.57;;;21.80;99.90;;;;;;5080521;28;20032;-74
2021/11/10 03:00:13;;;;;;;25.63;14.02;;;21.80;99.90;;;;;;5081220;28;20739;-73
2021/11/10 03:02:40;;;;;;;20.55;12.10;;;21.90;99.90;;;;;;5077989;28;20032;-73
2021/11/10 03:05:08;;;;;;;24.90;13.38;;;21.80;99.90;;;;;;5083950;28;20198;-73
2021/11/10 03:07:35;;;;;;;25.50;13.80;;;21.90;99.90;;;;;;5081138;28;20028;-73
2021/11/10 03:10:05;;;;;;;22.65;13.52;;;21.90;99.90;;;;;;5059494;28;20655;-74
2021/11/10 03:12:33;;;;;;;23.30;14.02;;;21.90;99.90;;;;;;5080461;28;20028;-73
2021/11/10 03:15:01;;;;;;;25.25;14.07;;;21.80;99.90;;;;;;5080962;28;20371;-74
2021/11/10 03:17:28;;;;;;;26.20;14.32;;;21.60;99.90;;;;;;5075950;28;20024;-73
2021/11/10 03:19:55;;;;;;;27.23;14.57;;;21.60;99.90;;;;;;5070733;28;20024;-75
2021/11/10 03:22:23;;;;;;;25.92;14.05;;;21.40;99.90;;;;;;5084516;28;20038;-74
2021/11/10 03:24:52;;;;;;;26.38;14.23;;;21.40;99.90;;;;;;5079861;28;20012;-74
2021/11/10 03:27:19;;;;;;;25.40;14.73;;;21.30;99.90;;;;;;5080032;28;20893;-75
2021/11/10 03:29:53;;;;;;;29.60;16.80;;;21.30;99.90;;;;;;5085563;28;20482;-73
2021/11/10 03:32:22;;;;;;;29.35;14.93;;;21.30;99.90;;;;;;5085897;28;20048;-74
2021/11/10 03:34:50;;;;;;;27.48;14.85;;;21.20;99.90;;;;;;5084828;28;20098;-73
2021/11/10 03:37:18;;;;;;;25.80;15.48;;;21.00;99.90;;;;;;5079328;28;20073;-73
2021/11/10 03:39:46;;;;;;;20.52;13.48;;;20.90;99.90;;;;;;5082838;28;20032;-73
2021/11/10 03:42:13;;;;;;;26.73;14.45;;;20.90;99.90;;;;;;5079233;28;20051;-73
2021/11/10 03:44:41;;;;;;;26.35;15.30;;;20.80;99.90;;;;;;5078810;28;20425;-72
2021/11/10 03:47:09;;;;;;;24.80;13.02;;;20.80;99.90;;;;;;5076313;28;20024;-73
2021/11/10 03:49:36;;;;;;;25.30;14.00;;;20.80;99.90;;;;;;5080720;28;20655;-74
2021/11/10 03:52:04;;;;;;;24.65;12.77;;;20.90;99.90;;;;;;5077043;28;20043;-72
2021/11/10 03:54:31;;;;;;;25.50;13.93;;;21.00;99.90;;;;;;5082666;28;20119;-75
2021/11/10 03:56:59;;;;;;;26.63;13.13;;;21.00;99.90;;;;;;5081349;28;20032;-73
2021/11/10 03:59:26;;;;;;;18.20;11.02;;;21.00;99.90;;;;;;5082413;28;21290;-72
2021/11/10 04:01:53;;;;;;;21.30;12.23;;;21.00;99.90;;;;;;5075852;28;20048;-74
2021/11/10 04:04:21;;;;;;;20.30;10.90;;;21.00;99.90;;;;;;5081991;28;20188;-72
2021/11/10 04:06:49;;;;;;;26.50;13.20;;;20.90;99.90;;;;;;5077750;28;20028;-72
2021/11/10 04:09:16;;;;;;;24.92;12.73;;;20.90;99.90;;;;;;5084621;28;20029;-74
2021/11/10 04:11:44;;;;;;;21.77;13.45;;;20.80;99.90;;;;;;5076249;28;20489;-74
2021/11/10 04:14:12;;;;;;;25.05;12.77;;;20.80;99.90;;;;;;5082054;28;20073;-73
2021/11/10 04:16:39;;;;;;;23.40;11.85;;;20.70;99.90;;;;;;5080405;28;20044;-74
2021/11/10 04:19:06;;;;;;;20.10;11.90;;;20.70;99.90;;;;;;5082496;28;20032;-72
2021/11/10 04:21:34;;;;;;;21.25;12.60;;;20.80;99.90;;;;;;5079708;28;20023;-73
2021/11/10 04:24:02;;;;;;;21.55;11.88;;;20.80;99.90;;;;;;5080126;28;20031;-73
2021/11/10 04:26:39;;;;;;;18.02;9.95;;;21.00;99.90;;;;;;5077833;28;20378;-73
2021/11/10 04:29:07;;;;;;;17.75;9.68;;;21.10;99.90;;;;;;5081846;28;20069;-73
2021/11/10 04:31:35;;;;;;;17.20;9.25;;;21.30;99.90;;;;;;5080172;28;20040;-73
2021/11/10 04:34:04;;;;;;;13.77;8.70;;;21.30;99.90;;;;;;5078829;28;20513;-74
2021/11/10 04:36:33;;;;;;;15.77;8.75;;;21.30;99.90;;;;;;5085024;28;20024;-73
2021/11/10 04:39:00;;;;;;;16.70;9.70;;;21.30;99.90;;;;;;5084371;28;20028;-73
2021/11/10 04:41:28;;;;;;;14.35;8.77;;;21.40;99.90;;;;;;5065928;28;20552;-74
2021/11/10 04:43:55;;;;;;;9.82;6.63;;;21.40;99.90;;;;;;5081886;28;20086;-75
2021/11/10 04:48:50;;;;;;;15.68;8.27;;;21.40;99.90;;;;;;5083332;28;20020;-76
2021/11/10 04:51:18;;;;;;;11.13;6.97;;;21.30;99.90;;;;;;5067886;28;20085;-75
2021/11/10 04:53:47;;;;;;;12.30;7.35;;;21.30;99.90;;;;;;5085482;28;20025;-74
2021/11/10 04:56:15;;;;;;;11.73;7.05;;;21.30;99.90;;;;;;5070166;28;20471;-75
2021/11/10 04:58:43;;;;;;;10.50;7.03;;;21.40;99.90;;;;;;5084316;28;20031;-74
2021/11/10 05:01:20;;;;;;;12.85;7.70;;;21.60;99.90;;;;;;5087445;28;20162;-75
2021/11/10 05:03:47;;;;;;;25.17;12.80;;;21.60;99.90;;;;;;5086047;28;20348;-74
2021/11/10 05:06:15;;;;;;;21.58;14.23;;;21.70;99.90;;;;;;5081705;28;20035;-74
2021/11/10 05:08:42;;;;;;;23.92;14.38;;;21.70;99.90;;;;;;5083166;28;20019;-76
2021/11/10 05:11:09;;;;;;;24.02;13.85;;;21.70;99.90;;;;;;5063511;28;20043;-75
2021/11/10 05:13:37;;;;;;;21.55;14.10;;;21.70;99.90;;;;;;5088472;28;20486;-75
2021/11/10 05:16:04;;;;;;;24.00;12.52;;;21.60;99.90;;;;;;5082476;28;20032;-77
2021/11/10 05:18:32;;;;;;;24.88;13.88;;;21.60;99.90;;;;;;5086967;28;20024;-75
2021/11/10 05:20:59;;;;;;;17.92;10.60;;;21.60;99.90;;;;;;5086094;28;20036;-75
2021/11/10 05:23:27;;;;;;;20.63;12.27;;;21.60;99.90;;;;;;5083912;28;20027;-74
2021/11/10 05:25:54;;;;;;;18.25;12.35;;;21.70;99.90;;;;;;5065175;28;20517;-76
2021/11/10 05:28:21;;;;;;;22.15;12.95;;;21.70;99.90;;;;;;5085724;28;20040;-76
2021/11/10 05:30:49;;;;;;;21.88;14.15;;;21.80;99.90;;;;;;5079154;28;20074;-75
2021/11/10 05:33:16;;;;;;;22.70;11.98;;;21.70;99.90;;;;;;5082773;28;20069;-74
2021/11/10 05:35:43;;;;;;;19.38;11.25;;;21.70;99.90;;;;;;5084207;28;20024;-73
2021/11/10 05:38:11;;;;;;;29.35;14.50;;;21.90;99.90;;;;;;5083593;28;20351;-76
2021/11/10 05:40:38;;;;;;;18.58;12.88;;;21.90;99.90;;;;;;5081926;28;20055;-75
2021/11/10 05:43:05;;;;;;;19.67;12.98;;;21.90;99.90;;;;;;5085574;28;20072;-75
2021/11/10 05:45:34;;;;;;;22.38;12.98;;;22.00;99.90;;;;;;5079725;28;20028;-74
2021/11/10 05:48:02;;;;;;;19.17;12.50;;;22.00;99.90;;;;;;5085390;28;20035;-74
2021/11/10 05:50:29;;;;;;;17.67;12.52;;;22.00;99.90;;;;;;5078617;28;20066;-74
2021/11/10 05:52:56;;;;;;;18.23;10.30;;;21.90;99.90;;;;;;5084956;28;20428;-75
2021/11/10 05:55:25;;;;;;;20.48;11.77;;;22.10;99.90;;;;;;5079708;28;20073;-73
2021/11/10 05:57:54;;;;;;;18.35;10.48;;;22.20;99.90;;;;;;5078377;28;20075;-75
2021/11/10 06:00:21;;;;;;;24.33;14.13;;;22.20;99.90;;;;;;5077907;28;20436;-73
2021/11/10 06:02:50;;;;;;;24.38;15.43;;;22.30;99.90;;;;;;5083496;28;20088;-74
2021/11/10 06:05:19;;;;;;;20.17;12.90;;;22.30;99.90;;;;;;5082284;28;20020;-75
2021/11/10 06:07:46;;;;;;;21.25;14.68;;;22.20;99.90;;;;;;5079305;28;20356;-75
2021/11/10 06:10:17;;;;;;;23.75;14.38;;;22.10;99.90;;;;;;5079569;28;20454;-75
2021/11/10 06:12:46;;;;;;;21.88;13.95;;;22.10;99.90;;;;;;5082894;28;20024;-75
2021/11/10 06:15:14;;;;;;;20.08;13.65;;;22.00;99.90;;;;;;5085196;28;20033;-76
2021/11/10 06:17:41;;;;;;;27.30;16.17;;;22.00;99.90;;;;;;5083520;28;20111;-75
2021/11/10 06:20:10;;;;;;;21.65;14.05;;;21.90;99.90;;;;;;5086025;28;20028;-77
2021/11/10 06:22:38;;;;;;;22.90;14.05;;;21.70;99.90;;;;;;5081405;28;20468;-75
2021/11/10 06:25:06;;;;;;;18.10;13.48;;;21.60;99.90;;;;;;5082529;28;20059;-76
2021/11/10 06:27:33;;;;;;;22.52;12.90;;;21.40;99.90;;;;;;5064738;28;20536;-76
2021/11/10 06:30:01;;;;;;;20.70;12.70;;;21.30;99.90;;;;;;5081588;28;20035;-77
2021/11/10 06:32:29;;;;;;;24.23;13.50;;;21.30;99.90;;;;;;5081467;28;20060;-75
2021/11/10 06:34:56;;;;;;;28.00;15.35;;;21.20;99.90;;;;;;5083769;28;20043;-77
2021/11/10 06:37:23;;;;;;;21.23;13.23;;;21.20;99.90;;;;;;5083252;28;20032;-76
2021/11/10 06:39:51;;;;;;;21.65;14.38;;;21.20;99.90;;;;;;5081337;28;20047;-76
2021/11/10 06:42:18;;;;;;;24.08;15.02;;;21.20;99.90;;;;;;5084210;28;20028;-78
2021/11/10 06:44:45;;;;;;;24.58;15.27;;;21.10;99.90;;;;;;5080298;28;20027;-77
2021/11/10 06:47:13;;;;;;;21.33;13.55;;;21.00;99.90;;;;;;5084144;28;20546;-78
2021/11/10 06:49:41;;;;;;;24.23;14.65;;;20.90;99.90;;;;;;5082153;28;20447;-78
2021/11/10 06:52:10;;;;;;;25.73;14.02;;;20.80;99.90;;;;;;5086341;28;20036;-79
2021/11/10 06:54:37;;;;;;;22.60;12.95;;;20.80;99.90;;;;;;5091211;28;20056;-81
2021/11/10 06:57:05;;;;;;;21.38;12.27;;;20.70;99.90;;;;;;5081652;28;20368;-82
2021/11/10 06:59:32;;;;;;;19.73;12.27;;;20.70;99.90;;;;;;5083727;28;20035;-82
2021/11/10 07:02:00;;;;;;;20.90;11.98;;;20.80;99.90;;;;;;5077824;28;20112;-81
2021/11/10 07:04:27;;;;;;;16.52;11.00;;;20.70;99.90;;;;;;5087134;28;20039;-81
2021/11/10 07:06:54;;;;;;;16.45;10.55;;;20.70;99.90;;;;;;5083033;28;20016;-79
2021/11/10 07:09:23;;;;;;;18.60;11.05;;;20.70;99.90;;;;;;5084736;28;20035;-80
2021/11/10 07:11:50;;;;;;;21.10;10.48;;;20.60;99.90;;;;;;5092810;28;20089;-81
2021/11/10 07:14:18;;;;;;;23.20;13.13;;;20.60;99.90;;;;;;5090882;28;20386;-79
2021/11/10 07:16:45;;;;;;;21.25;11.55;;;20.60;99.90;;;;;;5092094;28;20032;-77
2021/11/10 07:19:12;;;;;;;19.98;12.02;;;20.60;99.90;;;;;;5090952;28;20027;-77
2021/11/10 07:21:40;;;;;;;21.88;12.85;;;20.70;99.90;;;;;;5092628;28;20374;-76
2021/11/10 07:24:07;;;;;;;21.67;12.73;;;20.70;99.90;;;;;;5090577;28;20050;-76
2021/11/10 07:26:34;;;;;;;23.23;14.18;;;20.60;99.90;;;;;;5080399;28;20407;-73
2021/11/10 07:29:02;;;;;;;18.77;11.60;;;20.60;99.90;;;;;;5088524;28;20024;-76
2021/11/10 07:31:30;;;;;;;18.33;12.02;;;20.60;99.90;;;;;;5065389;28;20070;-79
2021/11/10 07:33:59;;;;;;;19.55;10.68;;;20.60;99.90;;;;;;5091862;28;20123;-78
2021/11/10 07:36:28;;;;;;;21.75;12.95;;;20.50;99.90;;;;;;5090554;28;20111;-77
2021/11/10 07:38:56;;;;;;;18.30;10.90;;;20.50;99.90;;;;;;5089618;28;20024;-79
2021/11/10 07:41:28;;;;;;;15.70;11.55;;;20.50;99.90;;;;;;5085987;28;20074;-74
2021/11/10 07:43:56;;;;;;;20.85;12.32;;;20.50;99.90;;;;;;5090071;28;20024;-77
2021/11/10 07:46:26;;;;;;;20.50;11.48;;;20.40;99.90;;;;;;5091986;28;20020;-79
2021/11/10 07:48:53;;;;;;;18.02;11.95;;;20.40;99.90;;;;;;5091813;28;20488;-78
2021/11/10 07:51:21;;;;;;;16.85;11.55;;;20.30;99.90;;;;;;5089114;28;20032;-77
2021/11/10 07:53:49;;;;;;;20.20;12.18;;;20.30;99.90;;;;;;5093594;28;20028;-75
2021/11/10 07:56:16;;;;;;;16.70;11.02;;;20.20;99.90;;;;;;5091955;28;20023;-73
2021/11/10 07:58:44;;;;;;;19.13;12.52;;;20.20;99.90;;;;;;5089503;28;20027;-75
2021/11/10 08:01:12;;;;;;;19.50;12.13;;;20.20;99.90;;;;;;5090692;28;20024;-74
2021/11/10 08:03:39;;;;;;;19.80;11.77;;;20.10;99.90;;;;;;5092940;28;20055;-77
2021/11/10 08:06:07;;;;;;;21.88;13.35;;;20.10;99.90;;;;;;5092446;28;20049;-77
2021/11/10 08:08:34;;;;;;;22.02;14.20;;;20.00;99.90;;;;;;5092461;28;20382;-78
2021/11/10 08:11:04;;;;;;;17.02;10.48;;;20.00;99.90;;;;;;5084724;28;20067;-77
2021/11/10 08:13:32;;;;;;;20.05;11.02;;;19.90;99.90;;;;;;5077863;28;20017;-77
2021/11/10 08:16:00;;;;;;;21.90;11.55;;;19.90;99.90;;;;;;5085475;28;20028;-78
2021/11/10 08:18:28;;;;;;;16.95;10.90;;;19.90;99.90;;;;;;5092091;28;20048;-77
2021/11/10 08:20:56;;;;;;;17.95;9.93;;;19.90;99.90;;;;;;5090281;28;20032;-77
2021/11/10 08:23:26;;;;;;;18.98;11.20;;;19.90;99.90;;;;;;5094351;28;20066;-75
2021/11/10 08:25:55;;;;;;;13.93;9.80;;;19.90;99.90;;;;;;5086572;28;20394;-73
2021/11/10 08:28:22;;;;;;;20.40;10.63;;;19.90;99.90;;;;;;5091797;28;20032;-74
2021/11/10 08:30:50;;;;;;;13.27;8.98;;;19.90;99.90;;;;;;5087525;28;20036;-73
2021/11/10 08:33:18;;;;;;;12.85;8.85;;;19.90;99.90;;;;;;5083485;28;20163;-73
2021/11/10 08:35:46;;;;;;;15.63;9.57;;;19.90;99.90;;;;;;5088509;28;20025;-79
2021/11/10 08:38:14;;;;;;;17.17;9.35;;;19.90;99.90;;;;;;5088462;28;20032;-75
2021/11/10 08:40:43;;;;;;;15.38;10.48;;;19.90;99.90;;;;;;5076923;28;20016;-74
2021/11/10 08:43:12;;;;;;;16.02;10.13;;;19.90;99.90;;;;;;5082871;28;20016;-75
2021/11/10 08:45:44;;;;;;;15.88;10.13;;;19.90;99.90;;;;;;5084125;28;20519;-73
2021/11/10 08:48:11;;;;;;;16.38;10.38;;;20.00;99.90;;;;;;5090771;28;20039;-73
2021/11/10 08:50:42;;;;;;;14.80;9.35;;;19.90;99.90;;;;;;5086855;28;20032;-72
2021/11/10 08:53:12;;;;;;;18.27;9.93;;;19.90;99.90;;;;;;5072735;28;20035;-72
2021/11/10 08:55:39;;;;;;;13.88;9.13;;;19.90;99.90;;;;;;5086887;28;20051;-73
2021/11/10 08:58:07;;;;;;;19.23;11.38;;;19.90;99.90;;;;;;5080830;28;20023;-72
2021/11/10 09:00:35;;;;;;;14.55;9.10;;;19.90;99.90;;;;;;5085163;28;20399;-73
2021/11/10 09:03:03;;;;;;;15.07;8.88;;;19.90;99.90;;;;;;5084453;28;20031;-73
2021/11/10 09:05:32;;;;;;;16.00;9.68;;;19.90;99.90;;;;;;5088093;28;20028;-78
2021/11/10 09:08:00;;;;;;;16.83;9.13;;;19.90;99.90;;;;;;5084900;28;20073;-80
2021/11/10 09:10:28;;;;;;;15.07;9.32;;;19.90;99.90;;;;;;5083751;28;20047;-76
2021/11/10 09:12:55;;;;;;;14.35;8.35;;;19.80;99.90;;;;;;5083383;28;20510;-76
2021/11/10 09:15:24;;;;;;;16.88;9.48;;;19.80;99.90;;;;;;5089189;28;20024;-73
2021/11/10 09:17:51;;;;;;;16.73;9.00;;;19.80;99.90;;;;;;5079724;28;20028;-73
2021/11/10 09:20:23;;;;;;;16.67;9.35;;;19.80;99.90;;;;;;5091804;28;20123;-74
2021/11/10 09:22:50;;;;;;;16.00;9.18;;;19.70;99.90;;;;;;5080633;28;20033;-74
2021/11/10 09:25:20;;;;;;;17.73;9.32;;;19.70;99.90;;;;;;5094378;28;20028;-74
2021/11/10 09:27:48;;;;;;;16.92;9.27;;;19.60;99.90;;;;;;5079672;28;20027;-74
2021/11/10 09:30:18;;;;;;;15.38;8.60;;;19.60;99.90;;;;;;5094320;28;20119;-73
2021/11/10 09:32:49;;;;;;;14.77;9.13;;;19.60;99.90;;;;;;5074469;28;20047;-73
2021/11/10 09:35:18;;;;;;;18.02;10.65;;;19.60;99.90;;;;;;5075841;28;20016;-72
2021/11/10 09:37:46;;;;;;;13.73;8.40;;;19.60;99.90;;;;;;5086931;28;20025;-73
2021/11/10 09:40:17;;;;;;;14.25;9.77;;;19.60;99.90;;;;;;5079881;28;20035;-74
2021/11/10 09:42:44;;;;;;;12.30;7.65;;;19.50;99.90;;;;;;5079582;28;20449;-73
2021/11/10 09:45:16;;;;;;;11.60;7.35;;;19.50;99.90;;;;;;5093513;28;20024;-73
2021/11/10 09:47:45;;;;;;;14.55;8.43;;;19.50;99.90;;;;;;5079656;28;20069;-76
2021/11/10 09:50:17;;;;;;;12.65;7.97;;;19.50;99.90;;;;;;5085447;28;20486;-77
2021/11/10 09:52:45;;;;;;;15.40;7.93;;;19.50;99.90;;;;;;5080044;28;20419;-76
2021/11/10 09:55:15;;;;;;;12.50;7.78;;;19.50;99.90;;;;;;5092247;28;20554;-78
2021/11/10 09:57:43;;;;;;;15.70;8.48;;;19.50;99.90;;;;;;5093770;28;20020;-74
2021/11/10 10:00:13;;;;;;;20.85;10.93;;;19.50;99.90;;;;;;5090247;28;20084;-75
2021/11/10 10:02:45;;;;;;;20.10;11.95;;;19.40;99.90;;;;;;5093467;28;20031;-73
2021/11/10 10:05:13;;;;;;;23.17;13.63;;;19.40;99.90;;;;;;5093010;28;20028;-74
2021/11/10 10:07:42;;;;;;;27.08;13.88;;;19.40;99.90;;;;;;5093875;28;20032;-73
2021/11/10 10:10:10;;;;;;;22.00;11.23;;;19.40;99.90;;;;;;5090691;28;20128;-75
2021/11/10 10:12:40;;;;;;;22.77;11.48;;;19.40;99.90;;;;;;5067724;28;20153;-74
2021/11/10 10:15:10;;;;;;;19.20;11.10;;;19.40;99.90;;;;;;5089020;28;20024;-75
2021/11/10 10:17:44;;;;;;;15.55;8.73;;;19.40;99.90;;;;;;5069353;28;20024;-73
2021/11/10 10:20:38;;;;;;;14.38;8.40;;;19.40;99.90;;;;;;5086017;28;20031;-75
2021/11/10 10:23:12;;;;;;;13.70;7.38;;;19.30;99.90;;;;;;5079223;28;20016;-76
2021/11/10 10:25:48;;;;;;;14.45;8.82;;;19.40;99.90;;;;;;5083678;28;20123;-76
2021/11/10 10:28:19;;;;;;;11.20;7.65;;;19.40;99.90;;;;;;5094227;28;20024;-77
2021/11/10 10:30:57;;;;;;;11.45;6.38;;;19.40;99.90;;;;;;5082279;28;20056;-73
2021/11/10 10:33:32;;;;;;;11.95;7.05;;;19.30;99.90;;;;;;5082320;28;20131;-73
2021/11/10 10:36:07;;;;;;;12.45;8.20;;;19.40;99.90;;;;;;5074061;28;20025;-76
2021/11/10 10:38:48;;;;;;;15.95;7.45;;;19.40;99.90;;;;;;5082189;28;20024;-74
2021/11/10 10:41:17;;;;;;;11.13;6.88;;;19.40;99.90;;;;;;5088071;28;20537;-76
2021/11/10 10:43:48;;;;;;;14.48;8.25;;;19.30;99.90;;;;;;5092574;28;20309;-76
2021/11/10 10:46:17;;;;;;;15.93;8.13;;;19.30;99.90;;;;;;5084549;28;20028;-75
2021/11/10 10:48:45;;;;;;;13.90;8.52;;;19.40;99.90;;;;;;5067399;28;20353;-77
2021/11/10 10:51:15;;;;;;;15.77;9.95;;;19.40;99.90;;;;;;5081951;28;20028;-77
2021/11/10 10:53:53;;;;;;;23.67;15.00;;;19.30;99.90;;;;;;5084899;28;20028;-77
2021/11/10 10:56:28;;;;;;;31.77;19.98;;;19.30;99.90;;;;;;5087640;28;20067;-77
2021/11/10 10:58:59;;;;;;;;;;;19.30;99.90;;;;;;5090624;28;20020;-78
2021/11/10 11:01:47;;;;;;;20.38;11.07;;;19.30;99.90;;;;;;5082782;28;19912;-75
2021/11/10 11:04:17;;;;;;;20.55;12.07;;;19.30;99.90;;;;;;5076862;28;20498;-78
2021/11/10 11:06:45;;;;;;;11.82;7.00;;;19.30;99.90;;;;;;5055165;28;20360;-73
2021/11/10 11:09:18;;;;;;;9.73;6.05;;;19.30;99.90;;;;;;5083418;28;20040;-76
2021/11/10 11:12:07;;;;;;;11.60;6.97;;;19.30;99.90;;;;;;5084990;28;20031;-76
2021/11/10 11:17:26;;;;;;;8.98;5.10;;;19.30;99.90;;;;;;5076146;28;20028;-76
2021/11/10 11:19:57;;;;;;;9.75;4.97;;;19.30;99.90;;;;;;5083443;28;20028;-78
2021/11/10 11:22:52;;;;;;;8.50;5.60;;;19.30;99.90;;;;;;5087499;28;20115;-77
2021/11/10 11:25:25;;;;;;;11.70;6.28;;;19.40;99.90;;;;;;5077738;28;20052;-79
2021/11/10 11:27:52;;;;;;;11.43;5.72;;;19.40;99.90;;;;;;5086768;28;20027;-78
2021/11/10 11:30:20;;;;;;;11.00;5.95;;;19.40;99.90;;;;;;5084680;28;20052;-80
2021/11/10 11:32:50;;;;;;;5.93;4.47;;;19.40;99.90;;;;;;5090427;28;20044;-78
2021/11/10 11:35:38;;;;;;;6.40;3.80;;;19.40;99.90;;;;;;5076832;28;20050;-78
2021/11/10 11:38:32;;;;;;;6.45;4.25;;;19.30;99.90;;;;;;5078720;28;20041;-79
2021/11/10 11:41:02;;;;;;;7.53;4.55;;;19.40;99.90;;;;;;5083506;28;20398;-77
2021/11/10 11:43:32;;;;;;;6.18;3.83;;;19.40;99.90;;;;;;5092326;28;20482;-74
2021/11/10 11:45:59;;;;;;;6.72;4.07;;;19.40;99.90;;;;;;5086352;28;20017;-75
2021/11/10 11:48:28;;;;;;;5.82;3.50;;;19.30;99.90;;;;;;5079610;28;20028;-77
2021/11/10 11:51:08;;;;;;;6.03;3.70;;;19.30;99.90;;;;;;5085698;28;20028;-77
2021/11/10 11:53:38;;;;;;;9.07;3.72;;;19.40;99.90;;;;;;5089213;28;20047;-77
2021/11/10 11:56:12;;;;;;;4.65;3.38;;;19.40;99.90;;;;;;5086259;28;20020;-78
2021/11/10 11:58:48;;;;;;;5.57;3.10;;;19.40;99.90;;;;;;5089801;28;20387;-77
2021/11/10 12:01:17;;;;;;;;;;;19.40;99.90;;;;;;5084519;28;20020;-77
2021/11/10 12:03:51;;;;;;;5.75;3.20;;;19.40;99.90;;;;;;5084665;28;19923;-77
2021/11/10 12:06:21;;;;;;;3.90;2.78;;;19.40;99.90;;;;;;5093885;28;20049;-75
2021/11/10 12:08:53;;;;;;;5.63;2.67;;;19.40;99.90;;;;;;5087671;28;20023;-80
2021/11/10 12:11:21;;;;;;;4.13;2.40;;;19.40;99.90;;;;;;5079795;28;20042;-79
2021/11/10 12:14:12;;;;;;;2.92;2.38;;;19.40;99.90;;;;;;5079385;28;20521;-78
2021/11/10 12:17:01;;;;;;;3.75;2.47;;;19.40;99.90;;;;;;5080654;28;20035;-75
2021/11/10 12:19:34;;;;;;;2.55;2.25;;;19.40;99.90;;;;;;5077945;28;20032;-78
2021/11/10 12:22:18;;;;;;;3.15;2.03;;;19.40;99.90;;;;;;5076945;28;20120;-75
2021/11/10 12:24:51;;;;;;;2.45;1.85;;;19.40;99.90;;;;;;5084351;28;20459;-76
2021/11/10 12:27:32;;;;;;;2.63;1.67;;;19.40;99.90;;;;;;5090438;28;20040;-74
2021/11/10 12:30:00;;;;;;;3.88;1.67;;;19.40;99.90;;;;;;5073665;28;20038;-78
2021/11/10 12:32:31;;;;;;;2.00;1.27;;;19.30;99.90;;;;;;5089529;28;20047;-77
2021/11/10 12:34:59;;;;;;;4.90;1.67;;;19.30;99.90;;;;;;5075826;28;20542;-72
2021/11/10 12:37:34;;;;;;;1.65;1.27;;;19.30;99.90;;;;;;5079709;28;20089;-73
2021/11/10 12:40:22;;;;;;;3.33;1.42;;;19.20;99.90;;;;;;5082842;28;20099;-76
2021/11/10 12:42:55;;;;;;;2.85;1.17;;;19.20;99.90;;;;;;5082399;28;20032;-76
2021/11/10 12:45:30;;;;;;;1.70;1.50;;;19.30;99.90;;;;;;5090858;28;20024;-74
2021/11/10 12:47:59;;;;;;;;;;;19.30;99.90;;;;;;5079048;28;20382;-73
2021/11/10 12:50:50;;;;;;;2.75;1.27;;;19.30;99.90;;;;;;5081198;28;19924;-73